sensor_id;sensor_type;location;lat;lon;timestamp;pressure;altitude;pressure_sealevel;temperature;humidity
44198;BME280;30157;55.512;37.764;2022-07-21T00:01:11;98785.47;;;15.17;81.65
44198;BME280;30157;55.512;37.764;2022-07-21T00:03:37;98770.09;;;15.09;81.70
44198;BME280;30157;55.512;37.764;2022-07-21T00:06:03;98776.91;;;15.14;81.61
44198;BME280;30157;55.512;37.764;2022-07-21T00:08:29;98755.25;;;15.10;81.60
44198;BME280;30157;55.512;37.764;2022-07-21T00:10:55;98785.41;;;15.19;81.62
44198;BME280;30157;55.512;37.764;2022-07-21T00:13:21;98715.22;;;14.87;81.55
44198;BME280;30157;55.512;37.764;2022-07-21T00:15:47;98716.94;;;14.88;81.46
44198;BME280;30157;55.512;37.764;2022-07-21T00:18:13;98750.91;;;15.10;81.13
44198;BME280;30157;55.512;37.764;2022-07-21T00:20:38;98783.28;;;15.28;81.13
44198;BME280;30157;55.512;37.764;2022-07-21T00:23:04;98754.13;;;15.17;81.15
44198;BME280;30157;55.512;37.764;2022-07-21T00:25:30;98760.25;;;15.16;81.15
44198;BME280;30157;55.512;37.764;2022-07-21T00:27:56;98756.22;;;15.07;81.31
44198;BME280;30157;55.512;37.764;2022-07-21T00:30:22;98792.22;;;15.23;81.34
44198;BME280;30157;55.512;37.764;2022-07-21T00:32:48;98788.81;;;15.21;81.48
44198;BME280;30157;55.512;37.764;2022-07-21T00:35:14;98779.25;;;15.20;81.53
44198;BME280;30157;55.512;37.764;2022-07-21T00:37:41;98775.06;;;15.16;81.59
44198;BME280;30157;55.512;37.764;2022-07-21T00:40:09;98771.41;;;15.20;81.67
44198;BME280;30157;55.512;37.764;2022-07-21T00:42:37;98766.16;;;15.21;81.95
44198;BME280;30157;55.512;37.764;2022-07-21T00:45:05;98756.00;;;15.14;81.80
44198;BME280;30157;55.512;37.764;2022-07-21T00:47:31;98780.91;;;15.22;81.87
44198;BME280;30157;55.512;37.764;2022-07-21T00:49:59;98771.47;;;15.18;81.71
44198;BME280;30157;55.512;37.764;2022-07-21T00:52:25;98777.66;;;15.17;81.56
44198;BME280;30157;55.512;37.764;2022-07-21T00:54:52;98771.53;;;15.17;81.66
44198;BME280;30157;55.512;37.764;2022-07-21T00:57:18;98750.94;;;15.09;81.84
44198;BME280;30157;55.512;37.764;2022-07-21T00:59:44;98769.53;;;15.23;81.58
44198;BME280;30157;55.512;37.764;2022-07-21T01:02:11;98772.22;;;15.22;81.50
44198;BME280;30157;55.512;37.764;2022-07-21T01:04:37;98777.38;;;15.23;81.37
44198;BME280;30157;55.512;37.764;2022-07-21T01:07:05;98776.78;;;15.17;81.02
44198;BME280;30157;55.512;37.764;2022-07-21T01:09:32;98773.94;;;15.23;81.18
44198;BME280;30157;55.512;37.764;2022-07-21T01:11:58;98772.22;;;15.22;81.00
44198;BME280;30157;55.512;37.764;2022-07-21T01:14:24;98779.09;;;15.24;80.88
44198;BME280;30157;55.512;37.764;2022-07-21T01:16:50;98778.47;;;15.18;80.67
44198;BME280;30157;55.512;37.764;2022-07-21T01:19:16;98788.75;;;15.22;80.65
44198;BME280;30157;55.512;37.764;2022-07-21T01:21:44;98751.00;;;15.07;80.68
44198;BME280;30157;55.512;37.764;2022-07-21T01:24:10;98775.59;;;15.24;80.66
44198;BME280;30157;55.512;37.764;2022-07-21T01:26:44;98771.31;;;15.23;80.70
44198;BME280;30157;55.512;37.764;2022-07-21T01:29:11;98774.00;;;15.21;80.83
44198;BME280;30157;55.512;37.764;2022-07-21T01:31:40;98774.16;;;15.17;81.01
44198;BME280;30157;55.512;37.764;2022-07-21T01:34:08;98763.72;;;15.17;80.93
44198;BME280;30157;55.512;37.764;2022-07-21T01:36:34;98731.78;;;14.88;80.73
44198;BME280;30157;55.512;37.764;2022-07-21T01:39:00;98782.88;;;15.17;80.76
44198;BME280;30157;55.512;37.764;2022-07-21T01:41:44;98726.00;;;14.80;80.97
44198;BME280;30157;55.512;37.764;2022-07-21T01:44:11;98786.31;;;15.18;80.89
44198;BME280;30157;55.512;37.764;2022-07-21T01:46:39;98776.91;;;15.14;80.80
44198;BME280;30157;55.512;37.764;2022-07-21T01:49:11;98784.63;;;15.17;80.79
44198;BME280;30157;55.512;37.764;2022-07-21T01:51:37;98782.81;;;15.19;80.72
44198;BME280;30157;55.512;37.764;2022-07-21T01:54:03;98780.91;;;15.22;80.81
44198;BME280;30157;55.512;37.764;2022-07-21T01:56:29;98789.59;;;15.23;80.61
44198;BME280;30157;55.512;37.764;2022-07-21T01:58:56;98781.75;;;15.23;80.53
44198;BME280;30157;55.512;37.764;2022-07-21T02:01:24;98773.13;;;15.21;80.56
44198;BME280;30157;55.512;37.764;2022-07-21T02:03:58;98726.19;;;14.97;80.51
44198;BME280;30157;55.512;37.764;2022-07-21T02:06:25;98756.00;;;15.14;80.58
44198;BME280;30157;55.512;37.764;2022-07-21T02:08:51;98771.25;;;15.24;80.62
44198;BME280;30157;55.512;37.764;2022-07-21T02:11:17;98765.16;;;15.24;80.45
44198;BME280;30157;55.512;37.764;2022-07-21T02:13:46;98755.50;;;15.26;80.56
44198;BME280;30157;55.512;37.764;2022-07-21T02:16:12;98769.38;;;15.28;80.36
44198;BME280;30157;55.512;37.764;2022-07-21T02:18:38;98772.38;;;15.39;80.25
44198;BME280;30157;55.512;37.764;2022-07-21T02:21:05;98761.19;;;15.36;80.21
44198;BME280;30157;55.512;37.764;2022-07-21T02:23:32;98766.09;;;15.43;80.12
44198;BME280;30157;55.512;37.764;2022-07-21T02:26:02;98774.75;;;15.45;80.07
44198;BME280;30157;55.512;37.764;2022-07-21T02:28:28;98775.59;;;15.46;80.14
44198;BME280;30157;55.512;37.764;2022-07-21T02:30:55;98717.78;;;15.11;80.06
44198;BME280;30157;55.512;37.764;2022-07-21T02:33:21;98771.19;;;15.46;80.17
44198;BME280;30157;55.512;37.764;2022-07-21T02:35:47;98773.81;;;15.46;80.10
44198;BME280;30157;55.512;37.764;2022-07-21T02:38:13;98770.50;;;15.43;80.20
44198;BME280;30157;55.512;37.764;2022-07-21T02:40:39;98754.53;;;15.28;80.40
44198;BME280;30157;55.512;37.764;2022-07-21T02:43:05;98776.81;;;15.37;80.53
44198;BME280;30157;55.512;37.764;2022-07-21T02:45:32;98775.97;;;15.37;80.65
44198;BME280;30157;55.512;37.764;2022-07-21T02:48:04;98782.91;;;15.38;80.80
44198;BME280;30157;55.512;37.764;2022-07-21T02:50:33;98774.19;;;15.37;80.70
44198;BME280;30157;55.512;37.764;2022-07-21T02:53:01;98773.47;;;15.34;80.51
44198;BME280;30157;55.512;37.764;2022-07-21T02:55:28;98722.47;;;15.03;80.70
44198;BME280;30157;55.512;37.764;2022-07-21T02:58:17;98774.31;;;15.34;80.77
44198;BME280;30157;55.512;37.764;2022-07-21T03:00:45;98769.16;;;15.33;81.05
44198;BME280;30157;55.512;37.764;2022-07-21T03:03:11;98756.59;;;15.20;81.12
44198;BME280;30157;55.512;37.764;2022-07-21T03:05:37;98768.38;;;15.31;81.17
44198;BME280;30157;55.512;37.764;2022-07-21T03:08:05;98716.34;;;15.04;81.25
44198;BME280;30157;55.512;37.764;2022-07-21T03:10:31;98750.19;;;15.27;81.34
44198;BME280;30157;55.512;37.764;2022-07-21T03:12:57;98763.88;;;15.34;81.57
44198;BME280;30157;55.512;37.764;2022-07-21T03:15:23;98766.75;;;15.28;81.77
44198;BME280;30157;55.512;37.764;2022-07-21T03:17:49;98757.44;;;15.21;81.71
44198;BME280;30157;55.512;37.764;2022-07-21T03:20:14;98757.38;;;15.22;82.09
44198;BME280;30157;55.512;37.764;2022-07-21T03:22:40;98761.84;;;15.20;82.42
44198;BME280;30157;55.512;37.764;2022-07-21T03:25:06;98752.47;;;15.15;82.51
44198;BME280;30157;55.512;37.764;2022-07-21T03:27:32;98703.88;;;14.88;82.61
44198;BME280;30157;55.512;37.764;2022-07-21T03:30:06;98764.50;;;15.19;82.85
44198;BME280;30157;55.512;37.764;2022-07-21T03:32:32;98753.25;;;15.17;83.00
44198;BME280;30157;55.512;37.764;2022-07-21T03:34:58;98756.75;;;15.17;82.92
44198;BME280;30157;55.512;37.764;2022-07-21T03:37:25;98749.66;;;15.19;83.23
44198;BME280;30157;55.512;37.764;2022-07-21T03:39:50;98718.34;;;14.97;83.33
44198;BME280;30157;55.512;37.764;2022-07-21T03:42:16;98740.19;;;15.17;83.18
44198;BME280;30157;55.512;37.764;2022-07-21T03:44:42;98733.31;;;15.14;83.18
44198;BME280;30157;55.512;37.764;2022-07-21T03:47:07;98755.34;;;15.29;83.18
44198;BME280;30157;55.512;37.764;2022-07-21T03:49:33;98703.28;;;15.04;83.13
44198;BME280;30157;55.512;37.764;2022-07-21T03:51:59;98757.91;;;15.31;83.15
44198;BME280;30157;55.512;37.764;2022-07-21T03:54:25;98704.34;;;14.98;83.33
44198;BME280;30157;55.512;37.764;2022-07-21T03:56:50;98737.56;;;15.17;83.28
44198;BME280;30157;55.512;37.764;2022-07-21T03:59:18;98730.78;;;15.12;83.45
44198;BME280;30157;55.512;37.764;2022-07-21T04:01:44;98691.72;;;14.87;83.44
44198;BME280;30157;55.512;37.764;2022-07-21T04:04:10;98747.84;;;15.21;83.70
44198;BME280;30157;55.512;37.764;2022-07-21T04:06:38;98752.81;;;15.27;83.78
44198;BME280;30157;55.512;37.764;2022-07-21T04:09:04;98746.28;;;15.17;84.03
44198;BME280;30157;55.512;37.764;2022-07-21T04:11:29;98685.56;;;14.68;84.94
44198;BME280;30157;55.512;37.764;2022-07-21T04:13:57;98750.66;;;14.94;86.00
44198;BME280;30157;55.512;37.764;2022-07-21T04:16:23;98681.84;;;14.50;86.14
44198;BME280;30157;55.512;37.764;2022-07-21T04:18:49;98757.97;;;14.86;86.76
44198;BME280;30157;55.512;37.764;2022-07-21T04:21:15;98752.91;;;14.82;87.46
44198;BME280;30157;55.512;37.764;2022-07-21T04:23:41;98744.72;;;14.69;87.84
44198;BME280;30157;55.512;37.764;2022-07-21T04:26:06;98756.59;;;14.76;88.14
44198;BME280;30157;55.512;37.764;2022-07-21T04:28:32;98741.22;;;14.68;88.42
44198;BME280;30157;55.512;37.764;2022-07-21T04:30:58;98757.56;;;14.73;88.83
44198;BME280;30157;55.512;37.764;2022-07-21T04:33:23;98754.97;;;14.73;88.85
44198;BME280;30157;55.512;37.764;2022-07-21T04:35:49;98745.78;;;14.63;89.15
44198;BME280;30157;55.512;37.764;2022-07-21T04:38:18;98756.75;;;14.71;89.02
44198;BME280;30157;55.512;37.764;2022-07-21T04:40:44;98759.16;;;14.77;89.07
44198;BME280;30157;55.512;37.764;2022-07-21T04:43:09;98727.66;;;14.58;89.24
44198;BME280;30157;55.512;37.764;2022-07-21T04:45:35;98714.03;;;14.50;89.49
44198;BME280;30157;55.512;37.764;2022-07-21T04:48:01;98764.44;;;14.76;89.34
44198;BME280;30157;55.512;37.764;2022-07-21T04:50:27;98768.78;;;14.75;89.94
44198;BME280;30157;55.512;37.764;2022-07-21T04:52:55;98772.41;;;14.73;89.84
44198;BME280;30157;55.512;37.764;2022-07-21T04:55:21;98766.38;;;14.71;90.42
44198;BME280;30157;55.512;37.764;2022-07-21T04:57:50;98706.84;;;14.33;90.77
44198;BME280;30157;55.512;37.764;2022-07-21T05:00:21;98761.09;;;14.72;91.22
44198;BME280;30157;55.512;37.764;2022-07-21T05:02:48;98749.06;;;14.68;91.52
44198;BME280;30157;55.512;37.764;2022-07-21T05:05:14;98753.19;;;14.74;91.42
44198;BME280;30157;55.512;37.764;2022-07-21T05:07:40;98707.94;;;14.51;91.48
44198;BME280;30157;55.512;37.764;2022-07-21T05:10:07;98741.97;;;14.72;91.85
44198;BME280;30157;55.512;37.764;2022-07-21T05:12:33;98704.31;;;14.54;91.98
44198;BME280;30157;55.512;37.764;2022-07-21T05:14:59;98746.78;;;14.83;91.74
44198;BME280;30157;55.512;37.764;2022-07-21T05:17:25;98742.28;;;14.86;91.54
44198;BME280;30157;55.512;37.764;2022-07-21T05:19:50;98744.69;;;14.91;91.69
44198;BME280;30157;55.512;37.764;2022-07-21T05:22:16;98760.91;;;14.99;91.53
44198;BME280;30157;55.512;37.764;2022-07-21T05:24:42;98745.38;;;14.96;91.50
44198;BME280;30157;55.512;37.764;2022-07-21T05:27:08;98762.69;;;14.99;91.74
44198;BME280;30157;55.512;37.764;2022-07-21T05:29:34;98747.19;;;14.94;91.75
44198;BME280;30157;55.512;37.764;2022-07-21T05:31:59;98742.22;;;14.88;91.67
44198;BME280;30157;55.512;37.764;2022-07-21T05:34:25;98762.09;;;14.92;91.96
44198;BME280;30157;55.512;37.764;2022-07-21T05:36:51;98749.13;;;14.89;92.08
44198;BME280;30157;55.512;37.764;2022-07-21T05:39:19;98726.78;;;14.82;92.22
44198;BME280;30157;55.512;37.764;2022-07-21T05:41:44;98746.50;;;14.89;92.19
44198;BME280;30157;55.512;37.764;2022-07-21T05:44:10;98712.63;;;14.65;92.30
44198;BME280;30157;55.512;37.764;2022-07-21T05:46:36;98717.22;;;14.58;92.15
44198;BME280;30157;55.512;37.764;2022-07-21T05:49:02;98707.31;;;14.44;92.41
44198;BME280;30157;55.512;37.764;2022-07-21T05:51:28;98762.00;;;14.71;92.20
44198;BME280;30157;55.512;37.764;2022-07-21T05:53:53;98756.16;;;14.65;92.57
44198;BME280;30157;55.512;37.764;2022-07-21T05:56:19;98757.09;;;14.64;92.94
44198;BME280;30157;55.512;37.764;2022-07-21T05:58:45;98751.03;;;14.61;92.63
44198;BME280;30157;55.512;37.764;2022-07-21T06:01:11;98761.59;;;14.58;92.78
44198;BME280;30157;55.512;37.764;2022-07-21T06:03:40;98760.84;;;14.55;93.45
44198;BME280;30157;55.512;37.764;2022-07-21T06:06:07;98753.88;;;14.55;93.15
44198;BME280;30157;55.512;37.764;2022-07-21T06:08:34;98759.69;;;14.64;93.50
44198;BME280;30157;55.512;37.764;2022-07-21T06:10:59;98723.75;;;14.47;93.27
44198;BME280;30157;55.512;37.764;2022-07-21T06:13:25;98724.56;;;14.49;93.53
44198;BME280;30157;55.512;37.764;2022-07-21T06:15:51;98773.19;;;14.75;93.69
44198;BME280;30157;55.512;37.764;2022-07-21T06:18:17;98755.81;;;14.74;93.04
44198;BME280;30157;55.512;37.764;2022-07-21T06:20:43;98726.19;;;14.51;93.44
44198;BME280;30157;55.512;37.764;2022-07-21T06:23:08;98773.97;;;14.77;93.42
44198;BME280;30157;55.512;37.764;2022-07-21T06:25:34;98765.06;;;14.83;93.09
44198;BME280;30157;55.512;37.764;2022-07-21T06:28:02;98771.25;;;15.02;92.61
44198;BME280;30157;55.512;37.764;2022-07-21T06:30:28;98767.66;;;15.05;92.26
44198;BME280;30157;55.512;37.764;2022-07-21T06:32:54;98776.03;;;15.13;91.45
44198;BME280;30157;55.512;37.764;2022-07-21T06:35:19;98714.94;;;14.73;91.30
44198;BME280;30157;55.512;37.764;2022-07-21T06:37:46;98732.50;;;14.69;91.66
44198;BME280;30157;55.512;37.764;2022-07-21T06:40:13;98766.28;;;14.96;91.97
44198;BME280;30157;55.512;37.764;2022-07-21T06:42:39;98734.75;;;14.78;91.62
44198;BME280;30157;55.512;37.764;2022-07-21T06:45:07;98756.06;;;14.90;91.32
44198;BME280;30157;55.512;37.764;2022-07-21T06:47:33;98775.56;;;15.03;91.07
44198;BME280;30157;55.512;37.764;2022-07-21T06:49:59;98727.81;;;14.77;91.16
44198;BME280;30157;55.512;37.764;2022-07-21T06:52:30;98785.41;;;15.19;90.85
44198;BME280;30157;55.512;37.764;2022-07-21T06:54:59;98731.13;;;15.03;90.76
44198;BME280;30157;55.512;37.764;2022-07-21T06:57:25;98795.75;;;15.65;90.12
44198;BME280;30157;55.512;37.764;2022-07-21T06:59:51;98788.97;;;15.81;88.89
44198;BME280;30157;55.512;37.764;2022-07-21T07:02:19;98783.81;;;16.00;87.07
44198;BME280;30157;55.512;37.764;2022-07-21T07:04:44;98795.47;;;16.33;86.09
44198;BME280;30157;55.512;37.764;2022-07-21T07:07:10;98796.84;;;16.79;84.41
44198;BME280;30157;55.512;37.764;2022-07-21T07:09:36;98791.81;;;16.75;83.10
44198;BME280;30157;55.512;37.764;2022-07-21T07:12:02;98800.03;;;16.86;82.44
44198;BME280;30157;55.512;37.764;2022-07-21T07:14:33;98802.97;;;17.53;79.71
44198;BME280;30157;55.512;37.764;2022-07-21T07:16:59;98814.63;;;17.83;78.40
44198;BME280;30157;55.512;37.764;2022-07-21T07:19:26;98776.28;;;17.80;78.23
44198;BME280;30157;55.512;37.764;2022-07-21T07:21:52;98809.09;;;18.40;78.19
44198;BME280;30157;55.512;37.764;2022-07-21T07:24:17;98766.06;;;19.53;73.49
44198;BME280;30157;55.512;37.764;2022-07-21T07:26:43;98815.13;;;20.14;68.79
44198;BME280;30157;55.512;37.764;2022-07-21T07:29:09;98810.41;;;20.34;68.06
44198;BME280;30157;55.512;37.764;2022-07-21T07:31:35;98819.28;;;20.76;67.56
44198;BME280;30157;55.512;37.764;2022-07-21T07:34:00;98814.00;;;20.33;68.15
44198;BME280;30157;55.512;37.764;2022-07-21T07:36:27;98804.25;;;19.60;70.47
44198;BME280;30157;55.512;37.764;2022-07-21T07:38:54;98837.66;;;19.11;71.82
44198;BME280;30157;55.512;37.764;2022-07-21T07:41:23;98847.00;;;18.52;73.72
44198;BME280;30157;55.512;37.764;2022-07-21T07:43:49;98851.13;;;17.87;74.47
44198;BME280;30157;55.512;37.764;2022-07-21T07:46:17;98848.38;;;17.36;75.45
44198;BME280;30157;55.512;37.764;2022-07-21T07:48:44;98852.31;;;17.82;75.60
44198;BME280;30157;55.512;37.764;2022-07-21T07:51:11;98811.13;;;19.93;70.06
44198;BME280;30157;55.512;37.764;2022-07-21T07:53:38;98862.97;;;20.95;65.99
44198;BME280;30157;55.512;37.764;2022-07-21T07:56:04;98828.78;;;21.21;64.82
44198;BME280;30157;55.512;37.764;2022-07-21T07:58:30;98866.47;;;21.23;65.59
44198;BME280;30157;55.512;37.764;2022-07-21T08:00:56;98814.81;;;21.06;63.90
44198;BME280;30157;55.512;37.764;2022-07-21T08:03:23;98879.88;;;21.05;63.54
44198;BME280;30157;55.512;37.764;2022-07-21T08:05:49;98876.69;;;20.42;64.93
44198;BME280;30157;55.512;37.764;2022-07-21T08:08:16;98875.47;;;20.03;66.04
44198;BME280;30157;55.512;37.764;2022-07-21T08:10:42;98833.16;;;19.76;66.46
44198;BME280;30157;55.512;37.764;2022-07-21T08:13:10;98875.66;;;21.03;64.32
44198;BME280;30157;55.512;37.764;2022-07-21T08:15:37;98882.06;;;21.95;63.80
44198;BME280;30157;55.512;37.764;2022-07-21T08:18:03;98875.69;;;22.51;62.09
44198;BME280;30157;55.512;37.764;2022-07-21T08:20:29;98842.28;;;22.37;61.22
44198;BME280;30157;55.512;37.764;2022-07-21T08:22:55;98880.34;;;22.60;59.70
44198;BME280;30157;55.512;37.764;2022-07-21T08:25:21;98882.41;;;22.93;57.69
44198;BME280;30157;55.512;37.764;2022-07-21T08:27:46;98877.72;;;23.10;58.64
44198;BME280;30157;55.512;37.764;2022-07-21T08:30:12;98824.72;;;22.23;59.44
44198;BME280;30157;55.512;37.764;2022-07-21T08:32:38;98878.63;;;22.33;59.73
44198;BME280;30157;55.512;37.764;2022-07-21T08:35:05;98882.19;;;23.09;58.43
44198;BME280;30157;55.512;37.764;2022-07-21T08:37:39;98882.50;;;23.18;58.76
44198;BME280;30157;55.512;37.764;2022-07-21T08:40:10;98893.34;;;22.89;57.72
44198;BME280;30157;55.512;37.764;2022-07-21T08:42:37;98838.97;;;22.07;59.73
44198;BME280;30157;55.512;37.764;2022-07-21T08:45:04;98899.72;;;21.94;59.91
44198;BME280;30157;55.512;37.764;2022-07-21T08:47:30;98907.78;;;23.22;57.90
44198;BME280;30157;55.512;37.764;2022-07-21T08:49:57;98902.53;;;24.41;54.73
44198;BME280;30157;55.512;37.764;2022-07-21T08:52:25;98909.13;;;24.71;53.72
44198;BME280;30157;55.512;37.764;2022-07-21T08:54:51;98905.25;;;24.98;52.15
44198;BME280;30157;55.512;37.764;2022-07-21T08:57:17;98866.59;;;25.28;50.67
44198;BME280;30157;55.512;37.764;2022-07-21T08:59:43;98910.81;;;25.73;49.96
44198;BME280;30157;55.512;37.764;2022-07-21T09:02:26;98899.22;;;25.07;49.91
44198;BME280;30157;55.512;37.764;2022-07-21T09:05:01;98906.63;;;25.59;49.39
44198;BME280;30157;55.512;37.764;2022-07-21T09:07:49;98922.59;;;25.13;50.08
44198;BME280;30157;55.512;37.764;2022-07-21T09:10:20;98919.38;;;26.30;47.14
44198;BME280;30157;55.512;37.764;2022-07-21T09:12:51;98917.69;;;27.02;45.96
44198;BME280;30157;55.512;37.764;2022-07-21T09:15:19;98920.66;;;27.49;45.43
44198;BME280;30157;55.512;37.764;2022-07-21T09:18:12;98938.63;;;27.67;44.58
44198;BME280;30157;55.512;37.764;2022-07-21T09:20:50;98915.06;;;28.02;43.24
44198;BME280;30157;55.512;37.764;2022-07-21T09:23:19;98906.63;;;28.26;43.53
44198;BME280;30157;55.512;37.764;2022-07-21T09:25:48;98943.97;;;27.87;42.11
44198;BME280;30157;55.512;37.764;2022-07-21T09:30:50;98943.06;;;28.74;40.88
44198;BME280;30157;55.512;37.764;2022-07-21T09:33:23;98931.50;;;28.83;40.02
44198;BME280;30157;55.512;37.764;2022-07-21T09:36:10;98900.97;;;26.38;43.70
44198;BME280;30157;55.512;37.764;2022-07-21T09:41:12;98945.28;;;24.72;46.58
44198;BME280;30157;55.512;37.764;2022-07-21T09:43:44;98963.38;;;26.02;44.60
44198;BME280;30157;55.512;37.764;2022-07-21T09:46:36;98960.19;;;27.44;42.37
44198;BME280;30157;55.512;37.764;2022-07-21T09:49:02;98960.69;;;28.08;40.94
44198;BME280;30157;55.512;37.764;2022-07-21T09:51:32;98959.69;;;28.19;40.84
44198;BME280;30157;55.512;37.764;2022-07-21T09:56:28;98976.81;;;27.97;41.21
44198;BME280;30157;55.512;37.764;2022-07-21T09:58:56;98966.44;;;28.33;39.49
44198;BME280;30157;55.512;37.764;2022-07-21T10:01:23;98939.91;;;27.92;40.66
44198;BME280;30157;55.512;37.764;2022-07-21T10:03:51;98986.91;;;26.18;45.09
44198;BME280;30157;55.512;37.764;2022-07-21T10:06:19;98971.00;;;24.94;47.47
44198;BME280;30157;55.512;37.764;2022-07-21T10:08:45;98985.69;;;24.40;48.75
44198;BME280;30157;55.512;37.764;2022-07-21T10:11:12;98938.00;;;23.43;50.02
44198;BME280;30157;55.512;37.764;2022-07-21T10:13:38;98975.75;;;23.08;51.10
44198;BME280;30157;55.512;37.764;2022-07-21T10:16:08;98951.91;;;22.31;52.95
44198;BME280;30157;55.512;37.764;2022-07-21T10:19:23;98961.34;;;22.48;53.57
44198;BME280;30157;55.512;37.764;2022-07-21T10:24:30;98982.88;;;27.08;43.49
44198;BME280;30157;55.512;37.764;2022-07-21T10:27:08;98984.38;;;27.92;41.15
44198;BME280;30157;55.512;37.764;2022-07-21T10:32:15;98979.03;;;29.55;38.75
44198;BME280;30157;55.512;37.764;2022-07-21T10:34:41;98936.63;;;29.60;36.82
44198;BME280;30157;55.512;37.764;2022-07-21T10:37:08;98975.72;;;30.07;36.71
44198;BME280;30157;55.512;37.764;2022-07-21T10:39:35;98976.13;;;29.84;36.54
44198;BME280;30157;55.512;37.764;2022-07-21T10:42:13;98985.41;;;30.26;36.44
44198;BME280;30157;55.512;37.764;2022-07-21T10:44:41;98951.16;;;30.30;35.34
44198;BME280;30157;55.512;37.764;2022-07-21T10:47:16;98968.53;;;30.70;35.33
44198;BME280;30157;55.512;37.764;2022-07-21T10:49:50;98980.81;;;30.81;34.55
44198;BME280;30157;55.512;37.764;2022-07-21T10:57:44;98964.66;;;30.64;33.04
44198;BME280;30157;55.512;37.764;2022-07-21T11:00:32;98990.03;;;31.05;32.72
44198;BME280;30157;55.512;37.764;2022-07-21T11:03:01;98982.03;;;31.13;32.04
44198;BME280;30157;55.512;37.764;2022-07-21T11:05:30;98946.91;;;30.19;33.74
44198;BME280;30157;55.512;37.764;2022-07-21T11:08:16;98998.72;;;29.26;35.25
44198;BME280;30157;55.512;37.764;2022-07-21T11:13:10;98990.09;;;30.95;32.48
44198;BME280;30157;55.512;37.764;2022-07-21T11:18:27;99000.31;;;31.17;31.17
44198;BME280;30157;55.512;37.764;2022-07-21T11:23:39;98960.97;;;26.94;37.69
44198;BME280;30157;55.512;37.764;2022-07-21T11:26:06;99010.16;;;26.04;39.99
44198;BME280;30157;55.512;37.764;2022-07-21T11:28:33;99025.75;;;24.84;41.88
44198;BME280;30157;55.512;37.764;2022-07-21T11:31:24;99036.13;;;23.66;46.96
44198;BME280;30157;55.512;37.764;2022-07-21T11:33:50;99052.75;;;22.65;50.85
44198;BME280;30157;55.512;37.764;2022-07-21T11:36:30;99065.84;;;21.85;54.30
44198;BME280;30157;55.512;37.764;2022-07-21T11:39:06;99054.75;;;21.51;55.65
44198;BME280;30157;55.512;37.764;2022-07-21T11:41:36;99057.41;;;21.22;57.13
44198;BME280;30157;55.512;37.764;2022-07-21T11:44:05;99053.03;;;21.49;57.56
44198;BME280;30157;55.512;37.764;2022-07-21T11:46:54;99055.84;;;21.90;56.79
44198;BME280;30157;55.512;37.764;2022-07-21T11:49:23;99060.09;;;21.92;56.33
44198;BME280;30157;55.512;37.764;2022-07-21T11:51:58;99059.31;;;21.90;57.25
44198;BME280;30157;55.512;37.764;2022-07-21T11:54:45;99008.25;;;21.48;57.67
44198;BME280;30157;55.512;37.764;2022-07-21T11:57:12;99063.78;;;21.75;58.90
44198;BME280;30157;55.512;37.764;2022-07-21T11:59:39;99064.22;;;22.24;56.73
44198;BME280;30157;55.512;37.764;2022-07-21T12:02:10;99067.84;;;23.29;54.32
44198;BME280;30157;55.512;37.764;2022-07-21T12:04:44;99018.00;;;24.81;48.94
44198;BME280;30157;55.512;37.764;2022-07-21T12:09:58;99050.13;;;27.10;43.98
44198;BME280;30157;55.512;37.764;2022-07-21T12:12:28;99068.03;;;27.60;43.01
44198;BME280;30157;55.512;37.764;2022-07-21T12:14:54;99060.13;;;27.89;41.53
44198;BME280;30157;55.512;37.764;2022-07-21T12:17:41;99061.97;;;27.89;40.72
44198;BME280;30157;55.512;37.764;2022-07-21T12:20:07;99068.50;;;28.06;40.68
44198;BME280;30157;55.512;37.764;2022-07-21T12:22:41;99072.78;;;27.46;40.40
44198;BME280;30157;55.512;37.764;2022-07-21T12:25:11;99072.25;;;26.79;42.69
44198;BME280;30157;55.512;37.764;2022-07-21T12:27:40;99071.03;;;25.16;44.75
44198;BME280;30157;55.512;37.764;2022-07-21T12:30:08;99079.06;;;24.32;47.73
44198;BME280;30157;55.512;37.764;2022-07-21T12:32:41;99075.78;;;24.77;47.86
44198;BME280;30157;55.512;37.764;2022-07-21T12:35:17;99085.81;;;24.61;48.21
44198;BME280;30157;55.512;37.764;2022-07-21T12:40:19;99074.09;;;23.41;49.90
44198;BME280;30157;55.512;37.764;2022-07-21T12:42:47;99091.34;;;23.59;50.28
44198;BME280;30157;55.512;37.764;2022-07-21T12:45:14;99051.31;;;23.51;50.19
44198;BME280;30157;55.512;37.764;2022-07-21T12:47:40;99034.03;;;23.58;49.82
44198;BME280;30157;55.512;37.764;2022-07-21T12:50:14;99089.94;;;23.79;48.83
44198;BME280;30157;55.512;37.764;2022-07-21T12:52:41;99090.91;;;23.65;48.03
44198;BME280;30157;55.512;37.764;2022-07-21T12:55:07;99088.69;;;23.46;48.77
44198;BME280;30157;55.512;37.764;2022-07-21T12:57:33;99082.06;;;23.28;48.60
44198;BME280;30157;55.512;37.764;2022-07-21T12:59:59;99092.81;;;23.12;50.11
44198;BME280;30157;55.512;37.764;2022-07-21T13:02:26;99036.78;;;22.67;48.81
44198;BME280;30157;55.512;37.764;2022-07-21T13:04:54;99096.66;;;22.80;50.28
44198;BME280;30157;55.512;37.764;2022-07-21T13:07:20;99094.50;;;22.60;49.32
44198;BME280;30157;55.512;37.764;2022-07-21T13:09:45;99093.72;;;22.45;49.53
44198;BME280;30157;55.512;37.764;2022-07-21T13:12:12;99100.63;;;22.33;49.57
44198;BME280;30157;55.512;37.764;2022-07-21T13:14:39;99089.22;;;22.32;50.11
44198;BME280;30157;55.512;37.764;2022-07-21T13:17:13;99074.19;;;22.33;50.24
44198;BME280;30157;55.512;37.764;2022-07-21T13:19:39;99096.22;;;22.34;50.90
44198;BME280;30157;55.512;37.764;2022-07-21T13:22:05;99078.69;;;22.18;51.54
44198;BME280;30157;55.512;37.764;2022-07-21T13:24:31;99103.19;;;22.35;51.68
44198;BME280;30157;55.512;37.764;2022-07-21T13:26:57;99109.34;;;22.35;51.75